MSC Susanna — 3ECU4 — position and weather

sailwx.info

Track history (hours):
 
Tides and Currents Weather Stations Pressure Air Temp Water Temp Dewpoint Dewpoint Depression Visibility Wind Speed Wind Dir Waves Ship Positions

MSC Susanna

Last reported at 2014-Aug-29 02:08 UTC. Time now 2014-Sep-01 11:32 UTC.
Position N 30°21' E 032°24'.

Length 337 m; draft 14 m.

Type: Ship (hazmat cat A). MMSI: 371466000.

Date/timePositionNaut miles runAvg speedWind from/ knotsBaromVisibWave heightAir tempDewpointWater temp
2014-Aug-29 02:08N 30°21' E 032°24'7 8.5
2014-Aug-29 01:19N 30°27' E 032°21'61 7.6
2014-Aug-28 17:19N 31°28' E 032°20'0 0.0
2014-Aug-28 16:31N 31°28' E 032°20'29614.6
2014-Aug-27 20:17N 33°32' E 027°00'1519.6
2014-Aug-27 19:32N 33°37' E 026°44'3718.9
2014-Aug-27 17:34N 33°52' E 026°03'56918.8
2014-Aug-26 11:17N 38°10' E 015°36'1114.2
2014-Aug-26 10:31N 38°19' E 015°44'  
2014-Aug-24 00:14N 38°22' E 013°60'710.5
2014-Aug-23 23:33N 38°22' E 013°51'1110.6
2014-Aug-23 22:33N 38°23' E 013°37'1010.4
2014-Aug-23 21:34N 38°23' E 013°24'1010.1
2014-Aug-23 20:33N 38°24' E 013°11'1010.2
2014-Aug-23 19:34N 38°25' E 012°58'22213.7
2014-Aug-23 03:25N 38°38' E 008°15'1617.0
2014-Aug-23 02:27N 38°38' E 007°54'2116.7
2014-Aug-23 01:11N 38°40' E 007°27'1216.7
2014-Aug-23 00:28N 38°40' E 007°12'15717.1
2014-Aug-22 15:16N 38°56' E 003°51'1517.1
2014-Aug-22 14:21N 38°58' E 003°32'1417.0
2014-Aug-22 13:33N 39°00' E 003°14'1716.8
2014-Aug-22 12:33N 39°03' E 002°53'1716.6
2014-Aug-22 11:33N 39°05' E 002°32'1716.7
2014-Aug-22 10:33N 39°08' E 002°10'1716.8
2014-Aug-22 09:33N 39°10' E 001°49'1717.2
2014-Aug-22 08:33N 39°13' E 001°27'1717.2
2014-Aug-22 07:33N 39°15' E 001°05'2317.0
2014-Aug-22 06:10N 39°19' E 000°35'1116.9
2014-Aug-22 05:33N 39°20' E 000°22'73 2.5
2014-Aug-21 00:24N 38°09' W 000°00'1112.7
2014-Aug-20 23:33N 38°00' W 000°08'1312.7
2014-Aug-20 22:33N 37°50' W 000°17'1312.6
2014-Aug-20 21:33N 37°39' W 000°26'1312.8
2014-Aug-20 20:32N 37°29' W 000°36'1312.8
2014-Aug-20 19:33N 37°21' W 000°48'1212.6
2014-Aug-20 18:34N 37°13' W 000°60'1312.7
2014-Aug-20 17:34N 37°05' W 001°12'1313.0
2014-Aug-20 16:32N 36°56' W 001°25'1313.5
2014-Aug-20 15:33N 36°47' W 001°37'18613.3
2014-Aug-20 01:33N 35°59' W 005°21'17313.3
2014-Aug-19 12:33N 36°28' W 008°53'1413.6
2014-Aug-19 11:33N 36°32' W 009°09'1313.1
2014-Aug-19 10:34N 36°38' W 009°23'1313.3
2014-Aug-19 09:34N 36°49' W 009°33'1313.2
2014-Aug-19 08:34N 37°02' W 009°37'1313.2
2014-Aug-19 07:33N 37°15' W 009°41'1413.7
2014-Aug-19 06:31N 37°29' W 009°45'  
Track history (hours):
 
Tides and Currents Weather Stations Pressure Air Temp Water Temp Dewpoint Dewpoint Depression Visibility Wind Speed Wind Dir Waves Ship Positions

MSC Susanna

Last reported at 2014-Aug-29 02:08 UTC. Time now 2014-Sep-01 11:32 UTC.
Position N 30°21' E 032°24'.

Length 337 m; draft 14 m.

Type: Ship (hazmat cat A). MMSI: 371466000.

Date/timePositionNaut miles runAvg speedWind from/ knotsBaromVisibWave heightAir tempDewpointWater temp
2014-Aug-29 02:08N 30°21' E 032°24'7 8.5
2014-Aug-29 01:19N 30°27' E 032°21'61 7.6
2014-Aug-28 17:19N 31°28' E 032°20'0 0.0
2014-Aug-28 16:31N 31°28' E 032°20'29614.6
2014-Aug-27 20:17N 33°32' E 027°00'1519.6
2014-Aug-27 19:32N 33°37' E 026°44'3718.9
2014-Aug-27 17:34N 33°52' E 026°03'56918.8
2014-Aug-26 11:17N 38°10' E 015°36'1114.2
2014-Aug-26 10:31N 38°19' E 015°44'  
2014-Aug-24 00:14N 38°22' E 013°60'710.5
2014-Aug-23 23:33N 38°22' E 013°51'1110.6
2014-Aug-23 22:33N 38°23' E 013°37'1010.4
2014-Aug-23 21:34N 38°23' E 013°24'1010.1
2014-Aug-23 20:33N 38°24' E 013°11'1010.2
2014-Aug-23 19:34N 38°25' E 012°58'22213.7
2014-Aug-23 03:25N 38°38' E 008°15'1617.0
2014-Aug-23 02:27N 38°38' E 007°54'2116.7
2014-Aug-23 01:11N 38°40' E 007°27'1216.7
2014-Aug-23 00:28N 38°40' E 007°12'15717.1
2014-Aug-22 15:16N 38°56' E 003°51'1517.1
2014-Aug-22 14:21N 38°58' E 003°32'1417.0
2014-Aug-22 13:33N 39°00' E 003°14'1716.8
2014-Aug-22 12:33N 39°03' E 002°53'1716.6
2014-Aug-22 11:33N 39°05' E 002°32'1716.7
2014-Aug-22 10:33N 39°08' E 002°10'1716.8
2014-Aug-22 09:33N 39°10' E 001°49'1717.2
2014-Aug-22 08:33N 39°13' E 001°27'1717.2
2014-Aug-22 07:33N 39°15' E 001°05'2317.0
2014-Aug-22 06:10N 39°19' E 000°35'1116.9
2014-Aug-22 05:33N 39°20' E 000°22'73 2.5
2014-Aug-21 00:24N 38°09' W 000°00'1112.7
2014-Aug-20 23:33N 38°00' W 000°08'1312.7
2014-Aug-20 22:33N 37°50' W 000°17'1312.6
2014-Aug-20 21:33N 37°39' W 000°26'1312.8
2014-Aug-20 20:32N 37°29' W 000°36'1312.8
2014-Aug-20 19:33N 37°21' W 000°48'1212.6
2014-Aug-20 18:34N 37°13' W 000°60'1312.7
2014-Aug-20 17:34N 37°05' W 001°12'1313.0
2014-Aug-20 16:32N 36°56' W 001°25'1313.5
2014-Aug-20 15:33N 36°47' W 001°37'18613.3
2014-Aug-20 01:33N 35°59' W 005°21'17313.3
2014-Aug-19 12:33N 36°28' W 008°53'1413.6
2014-Aug-19 11:33N 36°32' W 009°09'1313.1
2014-Aug-19 10:34N 36°38' W 009°23'1313.3
2014-Aug-19 09:34N 36°49' W 009°33'1313.2
2014-Aug-19 08:34N 37°02' W 009°37'1313.2
2014-Aug-19 07:33N 37°15' W 009°41'1413.7
2014-Aug-19 06:31N 37°29' W 009°45'  

Dump ship's entire track history